createdAt,value
2023-03-29T00:03:44.229Z,3.10
2023-03-29T00:08:51.020Z,3.10
2023-03-29T00:13:54.486Z,3.10
2023-03-29T00:18:59.670Z,3.10
2023-03-29T00:24:03.309Z,3.10
2023-03-29T00:29:06.775Z,3.10
2023-03-29T00:34:11.726Z,3.00
2023-03-29T00:39:15.355Z,3.00
2023-03-29T00:44:57.550Z,3.00
2023-03-29T00:50:06.144Z,3.00
2023-03-29T00:55:14.713Z,2.90
2023-03-29T01:00:21.374Z,2.90
2023-03-29T01:05:31.007Z,2.90
2023-03-29T01:10:39.659Z,2.90
2023-03-29T01:15:47.317Z,2.80
2023-03-29T01:21:15.105Z,2.80
2023-03-29T01:26:27.092Z,2.80
2023-03-29T01:31:36.009Z,2.70
2023-03-29T01:36:44.311Z,2.70
2023-03-29T01:41:52.013Z,2.70
2023-03-29T01:47:06.573Z,2.60
2023-03-29T01:52:17.021Z,2.60
2023-03-29T01:57:21.729Z,2.60
2023-03-29T02:02:30.005Z,2.50
2023-03-29T02:07:37.451Z,2.50
2023-03-29T02:12:41.233Z,2.40
2023-03-29T02:17:46.410Z,2.40
2023-03-29T02:22:58.410Z,2.30
2023-03-29T02:28:02.503Z,2.30
2023-03-29T02:33:15.700Z,2.30
2023-03-29T02:38:19.222Z,2.30
2023-03-29T02:43:25.973Z,2.30
2023-03-29T02:48:33.441Z,2.30
2023-03-29T02:53:42.991Z,2.30
2023-03-29T02:58:46.378Z,2.30
2023-03-29T03:03:52.047Z,2.30
2023-03-29T03:08:55.535Z,2.30
2023-03-29T03:13:59.330Z,2.30
2023-03-29T03:19:04.652Z,2.40
2023-03-29T03:24:08.581Z,2.40
2023-03-29T03:29:11.962Z,2.40
2023-03-29T03:34:16.791Z,2.40
2023-03-29T03:39:20.328Z,2.40
2023-03-29T03:44:23.858Z,2.50
2023-03-29T03:49:29.090Z,2.50
2023-03-29T03:54:32.699Z,2.50
2023-03-29T03:59:36.104Z,2.50
2023-03-29T04:04:41.352Z,2.50
2023-03-29T04:09:45.152Z,2.60
2023-03-29T04:14:48.636Z,2.60
2023-03-29T04:19:53.367Z,2.60
2023-03-29T04:24:57.304Z,2.50
2023-03-29T04:30:00.900Z,2.60
2023-03-29T04:35:06.861Z,2.60
2023-03-29T04:40:14.179Z,2.60
2023-03-29T04:45:18.537Z,2.60
2023-03-29T04:50:23.359Z,2.60
2023-03-29T04:55:26.742Z,2.60
2023-03-29T05:00:31.619Z,2.60
2023-03-29T05:05:36.465Z,2.60
2023-03-29T05:10:43.345Z,2.60
2023-03-29T05:15:46.733Z,2.60
2023-03-29T05:20:54.140Z,2.60
2023-03-29T05:25:57.891Z,2.60
2023-03-29T05:31:04.593Z,2.70
2023-03-29T05:36:13.612Z,2.60
2023-03-29T05:41:17.893Z,2.70
2023-03-29T05:46:21.690Z,2.80
2023-03-29T05:51:26.579Z,2.90
2023-03-29T05:56:30.192Z,2.90
2023-03-29T06:01:33.542Z,3.00
2023-03-29T06:06:38.281Z,3.20
2023-03-29T06:11:41.803Z,3.30
2023-03-29T06:16:45.281Z,3.40
2023-03-29T06:21:50.068Z,3.50
2023-03-29T06:26:54.208Z,3.50
2023-03-29T06:31:58.068Z,3.60
2023-03-29T06:37:03.567Z,3.70
2023-03-29T06:42:19.977Z,3.80
2023-03-29T06:47:30.764Z,4.00
2023-03-29T06:52:35.936Z,4.10
2023-03-29T06:57:40.028Z,4.30
2023-03-29T07:02:43.736Z,4.40
2023-03-29T07:07:56.696Z,4.50
2023-03-29T07:13:00.737Z,4.70
2023-03-29T07:18:04.949Z,4.80
2023-03-29T07:23:12.607Z,5.00
2023-03-29T07:28:15.986Z,5.10
2023-03-29T07:33:20.282Z,5.20
2023-03-29T07:38:25.394Z,5.30
2023-03-29T07:43:29.113Z,5.50
2023-03-29T07:48:33.015Z,5.60
2023-03-29T07:53:38.525Z,5.80
2023-03-29T07:58:41.982Z,5.90
2023-03-29T08:03:45.393Z,6.00
2023-03-29T08:08:50.195Z,6.20
2023-03-29T08:13:53.608Z,6.30
2023-03-29T08:18:57.272Z,6.50
2023-03-29T08:24:02.888Z,6.60
2023-03-29T08:29:06.947Z,6.70
2023-03-29T08:34:10.338Z,6.90
2023-03-29T08:39:19.429Z,7.00
2023-03-29T08:44:39.967Z,7.10
2023-03-29T08:49:46.395Z,7.20
2023-03-29T08:54:54.081Z,7.40
2023-03-29T09:00:00.275Z,7.50
2023-03-29T09:05:10.219Z,7.60
2023-03-29T09:10:17.536Z,7.70
2023-03-29T09:15:25.289Z,7.80
2023-03-29T09:20:38.790Z,7.90
2023-03-29T09:25:54.358Z,8.00
2023-03-29T09:31:02.834Z,8.00
2023-03-29T09:36:11.827Z,8.10
2023-03-29T09:41:22.663Z,8.20
2023-03-29T09:46:30.732Z,8.20
2023-03-29T09:51:35.083Z,8.40
2023-03-29T09:56:40.998Z,8.60
2023-03-29T10:01:46.501Z,8.70
2023-03-29T10:06:53.874Z,8.90
2023-03-29T10:12:03.258Z,9.10
2023-03-29T10:17:14.743Z,9.20
2023-03-29T10:22:21.949Z,9.40
2023-03-29T10:27:31.559Z,9.60
2023-03-29T10:32:39.301Z,9.80
2023-03-29T10:37:44.242Z,9.90
2023-03-29T10:42:51.912Z,10.10
2023-03-29T10:47:57.059Z,10.30
2023-03-29T10:53:00.837Z,10.40
2023-03-29T10:58:17.803Z,10.50
2023-03-29T11:03:40.360Z,10.60
2023-03-29T11:08:53.884Z,10.80
2023-03-29T11:14:01.524Z,10.90
2023-03-29T11:19:21.953Z,11.00
2023-03-29T11:24:29.609Z,11.20
2023-03-29T11:29:42.588Z,11.30
2023-03-29T11:34:54.313Z,11.40
2023-03-29T11:40:09.403Z,11.50
2023-03-29T11:45:19.702Z,11.50
2023-03-29T11:50:26.718Z,11.50
2023-03-29T11:55:32.693Z,11.50
2023-03-29T12:00:41.577Z,11.60
2023-03-29T12:05:49.437Z,11.60
2023-03-29T12:11:01.565Z,11.70
2023-03-29T12:16:14.708Z,11.90
2023-03-29T12:21:21.428Z,12.00
2023-03-29T12:26:52.640Z,12.20
2023-03-29T12:32:06.417Z,12.40
2023-03-29T12:37:23.787Z,12.50
2023-03-29T12:42:27.365Z,12.70
2023-03-29T12:47:43.191Z,12.80
2023-03-29T12:52:46.805Z,12.90
2023-03-29T12:58:02.359Z,13.00
2023-03-29T13:03:22.522Z,13.20
2023-03-29T13:08:29.523Z,13.40
2023-03-29T13:13:36.686Z,13.50
2023-03-29T13:18:51.832Z,13.70
2023-03-29T13:24:03.017Z,13.80
2023-03-29T13:29:29.121Z,13.90
2023-03-29T13:34:41.214Z,14.00
2023-03-29T13:39:51.470Z,14.30
2023-03-29T13:45:12.157Z,14.30
2023-03-29T13:50:21.394Z,14.30
2023-03-29T13:55:32.277Z,14.40
2023-03-29T14:00:42.837Z,14.50
2023-03-29T14:05:54.608Z,14.50
2023-03-29T14:11:01.771Z,14.50
2023-03-29T14:16:09.105Z,14.50
2023-03-29T14:21:15.757Z,14.50
2023-03-29T14:26:22.045Z,14.50
2023-03-29T14:31:27.294Z,14.70
2023-03-29T14:36:34.328Z,14.90
2023-03-29T14:41:42.776Z,15.20
2023-03-29T14:46:47.514Z,15.50
2023-03-29T14:51:53.365Z,15.80
2023-03-29T14:56:58.129Z,16.10
2023-03-29T15:02:01.658Z,16.50
2023-03-29T15:07:06.725Z,17.10
2023-03-29T15:12:16.956Z,17.70
2023-03-29T15:17:51.234Z,18.40
2023-03-29T15:23:02.320Z,19.30
2023-03-29T15:28:06.342Z,20.30
2023-03-29T15:33:17.826Z,20.40
2023-03-29T15:38:27.662Z,19.10
2023-03-29T15:43:40.439Z,18.10
2023-03-29T15:48:44.198Z,17.30
2023-03-29T15:53:49.070Z,16.50
2023-03-29T15:58:52.440Z,16.00
2023-03-29T16:03:55.855Z,15.50
2023-03-29T16:09:01.059Z,15.20
2023-03-29T16:14:07.771Z,14.70
2023-03-29T16:19:11.541Z,14.30
2023-03-29T16:24:19.611Z,14.10
2023-03-29T16:29:23.371Z,13.80
2023-03-29T16:34:26.869Z,13.50
2023-03-29T16:39:31.811Z,13.30
2023-03-29T16:44:35.778Z,13.30
2023-03-29T16:49:40.249Z,13.10
2023-03-29T16:54:45.364Z,12.90
2023-03-29T16:59:48.809Z,12.70
2023-03-29T17:04:52.253Z,12.60
2023-03-29T17:09:59.760Z,12.50
2023-03-29T17:15:03.831Z,12.40
2023-03-29T17:20:12.163Z,12.30
2023-03-29T17:25:17.508Z,12.20
2023-03-29T17:30:21.252Z,12.20
2023-03-29T17:35:24.897Z,12.10
2023-03-29T17:40:30.586Z,12.10
2023-03-29T17:45:35.834Z,12.10
2023-03-29T17:50:39.387Z,12.10
2023-03-29T17:55:44.333Z,12.10
2023-03-29T18:00:47.783Z,12.10
2023-03-29T18:05:51.335Z,12.10
2023-03-29T18:10:56.245Z,12.10
2023-03-29T18:16:00.296Z,12.00
2023-03-29T18:21:04.190Z,12.00
2023-03-29T18:26:10.320Z,12.00
2023-03-29T18:31:14.235Z,11.90
2023-03-29T18:36:17.815Z,11.80
2023-03-29T18:41:23.483Z,11.80
2023-03-29T18:46:30.804Z,11.80
2023-03-29T18:51:34.781Z,11.70
2023-03-29T18:56:39.648Z,11.60
2023-03-29T19:01:44.142Z,11.60
2023-03-29T19:06:50.564Z,11.50
2023-03-29T19:11:55.404Z,11.50
2023-03-29T19:16:58.806Z,11.40
2023-03-29T19:22:02.245Z,11.40
2023-03-29T19:27:12.472Z,11.40
2023-03-29T19:32:19.115Z,11.40
2023-03-29T19:37:25.604Z,11.40
2023-03-29T19:42:31.287Z,11.30
2023-03-29T19:47:35.623Z,11.30
2023-03-29T19:52:39.584Z,11.20
2023-03-29T19:57:45.045Z,11.30
2023-03-29T20:02:49.741Z,11.30
2023-03-29T20:07:54.444Z,11.30
2023-03-29T20:12:59.717Z,11.30
2023-03-29T20:18:03.581Z,11.30
2023-03-29T20:23:07.069Z,11.20
2023-03-29T20:28:13.801Z,11.20
2023-03-29T20:33:17.497Z,11.30
2023-03-29T20:38:21.690Z,11.20
2023-03-29T20:43:27.425Z,11.20
2023-03-29T20:48:31.903Z,11.10
2023-03-29T20:53:35.674Z,11.00
2023-03-29T20:58:42.217Z,11.00
2023-03-29T21:03:45.813Z,11.00
2023-03-29T21:08:50.479Z,10.50
2023-03-29T21:13:55.940Z,10.90
2023-03-29T21:18:59.549Z,10.90
2023-03-29T21:24:03.722Z,10.80
2023-03-29T21:29:08.777Z,10.80
2023-03-29T21:34:12.199Z,10.70
2023-03-29T21:39:15.964Z,10.80
2023-03-29T21:44:20.877Z,10.80
2023-03-29T21:49:24.582Z,10.80
2023-03-29T21:54:28.571Z,10.70
2023-03-29T21:59:34.635Z,10.70
2023-03-29T22:04:38.583Z,10.60
2023-03-29T22:09:42.672Z,10.50
2023-03-29T22:14:47.640Z,10.40
2023-03-29T22:19:51.636Z,10.40
2023-03-29T22:24:56.799Z,10.40
2023-03-29T22:30:01.592Z,10.50
2023-03-29T22:35:05.648Z,10.50
2023-03-29T22:40:10.872Z,10.50
2023-03-29T22:45:15.796Z,10.50
2023-03-29T22:50:19.787Z,10.50
2023-03-29T22:55:23.236Z,10.50
2023-03-29T23:00:28.077Z,10.60
2023-03-29T23:05:31.507Z,10.50
2023-03-29T23:10:35.492Z,10.50
2023-03-29T23:15:45.199Z,10.50
2023-03-29T23:20:49.488Z,10.50
2023-03-29T23:25:54.534Z,10.50
2023-03-29T23:31:02.747Z,10.50
2023-03-29T23:36:09.126Z,10.50
2023-03-29T23:41:14.142Z,10.50
2023-03-29T23:46:20.547Z,10.50
2023-03-29T23:51:28.464Z,10.50
2023-03-29T23:56:32.024Z,10.50
